createdAt,value
2023-05-20T00:00:49.176Z,60.30
2023-05-20T00:03:17.199Z,60.40
2023-05-20T00:05:44.532Z,60.30
2023-05-20T00:08:11.724Z,60.30
2023-05-20T00:10:39.434Z,60.20
2023-05-20T00:13:06.862Z,60.20
2023-05-20T00:15:37.457Z,60.20
2023-05-20T00:18:05.255Z,60.20
2023-05-20T00:20:33.120Z,60.20
2023-05-20T00:23:00.324Z,60.00
2023-05-20T00:25:27.446Z,60.00
2023-05-20T00:27:54.459Z,60.00
2023-05-20T00:30:22.366Z,60.00
2023-05-20T00:32:49.466Z,60.10
2023-05-20T00:35:16.548Z,60.10
2023-05-20T00:37:43.650Z,60.10
2023-05-20T00:40:13.008Z,60.10
2023-05-20T00:42:41.264Z,60.40
2023-05-20T00:45:08.901Z,60.80
2023-05-20T00:47:39.297Z,61.20
2023-05-20T00:50:10.218Z,61.60
2023-05-20T00:52:38.095Z,61.80
2023-05-20T00:55:05.575Z,62.00
2023-05-20T00:57:32.571Z,62.20
2023-05-20T00:59:59.833Z,62.50
2023-05-20T01:02:27.330Z,62.80
2023-05-20T01:04:56.735Z,62.80
2023-05-20T01:07:25.596Z,63.10
2023-05-20T01:09:54.396Z,63.10
2023-05-20T01:12:30.445Z,63.20
2023-05-20T01:15:17.341Z,63.30
2023-05-20T01:17:47.210Z,63.60
2023-05-20T01:20:15.750Z,63.50
2023-05-20T01:23:09.009Z,63.60
2023-05-20T01:25:36.018Z,63.70
2023-05-20T01:28:03.285Z,63.50
2023-05-20T01:30:36.055Z,63.30
2023-05-20T01:33:07.736Z,63.30
2023-05-20T01:35:35.983Z,63.30
2023-05-20T01:38:06.300Z,63.30
2023-05-20T01:40:34.687Z,63.20
2023-05-20T01:43:03.515Z,63.30
2023-05-20T01:45:31.389Z,63.30
2023-05-20T01:48:00.117Z,63.20
2023-05-20T01:50:27.160Z,62.90
2023-05-20T01:52:54.206Z,62.80
2023-05-20T01:55:21.232Z,62.90
2023-05-20T01:57:48.289Z,62.90
2023-05-20T02:00:15.469Z,62.80
2023-05-20T02:02:44.848Z,62.70
2023-05-20T02:05:14.030Z,62.80
2023-05-20T02:07:43.494Z,62.70
2023-05-20T02:10:11.025Z,62.70
2023-05-20T02:12:38.359Z,62.60
2023-05-20T02:15:06.499Z,62.70
2023-05-20T02:17:33.645Z,62.70
2023-05-20T02:20:00.704Z,62.90
2023-05-20T02:22:27.713Z,63.10
2023-05-20T02:24:54.655Z,63.40
2023-05-20T02:27:21.690Z,63.60
2023-05-20T02:29:48.722Z,63.80
2023-05-20T02:32:15.758Z,64.00
2023-05-20T02:34:42.811Z,64.10
2023-05-20T02:37:09.826Z,64.30
2023-05-20T02:39:37.714Z,64.30
2023-05-20T02:42:04.842Z,64.50
2023-05-20T02:44:31.894Z,64.50
2023-05-20T02:46:58.926Z,64.70
2023-05-20T02:49:26.558Z,64.90
2023-05-20T02:51:53.534Z,65.00
2023-05-20T02:54:20.569Z,65.30
2023-05-20T02:56:47.525Z,65.20
2023-05-20T02:59:14.780Z,65.30
2023-05-20T03:01:41.948Z,65.50
2023-05-20T03:04:09.697Z,65.60
2023-05-20T03:06:38.318Z,65.80
2023-05-20T03:09:06.793Z,65.90
2023-05-20T03:11:34.354Z,66.10
2023-05-20T03:14:01.439Z,66.30
2023-05-20T03:16:28.950Z,66.40
2023-05-20T03:18:56.048Z,66.60
2023-05-20T03:21:24.003Z,66.70
2023-05-20T03:23:51.326Z,66.70
2023-05-20T03:26:19.245Z,67.10
2023-05-20T03:28:46.210Z,67.40
2023-05-20T03:31:13.432Z,67.50
2023-05-20T03:33:40.750Z,67.30
2023-05-20T03:36:07.907Z,67.30
2023-05-20T03:38:35.284Z,67.20
2023-05-20T03:41:02.536Z,67.20
2023-05-20T03:43:29.633Z,67.30
2023-05-20T03:45:57.018Z,67.40
2023-05-20T03:48:24.087Z,67.30
2023-05-20T03:50:51.180Z,67.50
2023-05-20T03:53:20.175Z,67.60
2023-05-20T03:55:47.205Z,67.70
2023-05-20T03:58:15.557Z,67.70
2023-05-20T04:00:42.962Z,67.60
2023-05-20T04:03:11.673Z,67.50
2023-05-20T04:05:39.646Z,67.50
2023-05-20T04:08:14.833Z,67.50
2023-05-20T04:10:42.905Z,67.50
2023-05-20T04:13:11.945Z,67.60
2023-05-20T04:15:39.493Z,67.70
2023-05-20T04:18:06.579Z,67.90
2023-05-20T04:20:33.837Z,68.00
2023-05-20T04:23:01.125Z,68.20
2023-05-20T04:25:28.178Z,68.30
2023-05-20T04:27:57.801Z,68.30
2023-05-20T04:30:25.234Z,68.50
2023-05-20T04:32:52.597Z,68.80
2023-05-20T04:35:20.096Z,69.10
2023-05-20T04:37:49.233Z,69.30
2023-05-20T04:40:17.176Z,69.60
2023-05-20T04:42:44.950Z,69.70
2023-05-20T04:45:13.709Z,69.70
2023-05-20T04:47:42.129Z,69.90
2023-05-20T04:50:16.333Z,70.00
2023-05-20T04:52:43.826Z,70.20
2023-05-20T04:55:12.073Z,70.20
2023-05-20T04:57:43.650Z,70.20
2023-05-20T05:00:12.639Z,70.20
2023-05-20T05:02:40.676Z,70.20
2023-05-20T05:05:08.241Z,70.30
2023-05-20T05:07:35.407Z,70.30
2023-05-20T05:10:02.513Z,70.60
2023-05-20T05:12:31.254Z,70.60
2023-05-20T05:14:59.355Z,70.50
2023-05-20T05:17:28.980Z,70.40
2023-05-20T05:19:57.483Z,70.40
2023-05-20T05:22:26.060Z,70.30
2023-05-20T05:24:53.210Z,70.00
2023-05-20T05:27:22.984Z,69.80
2023-05-20T05:29:50.431Z,69.60
2023-05-20T05:32:18.284Z,69.20
2023-05-20T05:34:45.387Z,68.90
2023-05-20T05:37:12.748Z,68.50
2023-05-20T05:39:40.332Z,68.20
2023-05-20T05:42:07.434Z,67.90
2023-05-20T05:44:35.028Z,67.80
2023-05-20T05:47:04.242Z,67.60
2023-05-20T05:49:32.168Z,67.50
2023-05-20T05:51:59.363Z,67.30
2023-05-20T05:54:26.734Z,67.20
2023-05-20T05:56:54.542Z,67.10
2023-05-20T05:59:21.735Z,66.90
2023-05-20T06:01:49.306Z,66.80
2023-05-20T06:04:17.002Z,66.60
2023-05-20T06:06:44.146Z,66.50
2023-05-20T06:09:11.528Z,66.30
2023-05-20T06:11:38.566Z,66.10
2023-05-20T06:14:05.620Z,65.80
2023-05-20T06:16:32.842Z,65.50
2023-05-20T06:19:03.395Z,65.10
2023-05-20T06:21:32.673Z,64.60
2023-05-20T06:24:00.143Z,64.20
2023-05-20T06:26:27.366Z,64.00
2023-05-20T06:28:54.894Z,64.00
2023-05-20T06:31:22.850Z,63.80
2023-05-20T06:33:51.824Z,63.50
2023-05-20T06:36:19.106Z,63.50
2023-05-20T06:38:47.196Z,63.20
2023-05-20T06:41:16.151Z,63.20
2023-05-20T06:43:43.135Z,63.60
2023-05-20T06:46:18.870Z,63.80
2023-05-20T06:48:51.296Z,64.00
2023-05-20T06:51:19.214Z,64.30
2023-05-20T06:53:48.959Z,64.30
2023-05-20T06:56:16.626Z,64.20
2023-05-20T06:58:44.184Z,64.40
2023-05-20T07:01:11.556Z,64.50
2023-05-20T07:03:39.845Z,64.40
2023-05-20T07:06:07.389Z,64.30
2023-05-20T07:08:35.025Z,64.10
2023-05-20T07:11:02.276Z,64.00
2023-05-20T07:13:30.775Z,63.80
2023-05-20T07:15:58.825Z,63.60
2023-05-20T07:18:28.508Z,63.20
2023-05-20T07:20:57.760Z,62.90
2023-05-20T07:23:56.995Z,62.60
2023-05-20T07:26:24.349Z,62.40
2023-05-20T07:28:52.111Z,62.20
2023-05-20T07:31:19.305Z,62.30
2023-05-20T07:33:46.401Z,61.70
2023-05-20T07:36:13.532Z,61.40
2023-05-20T07:38:49.963Z,60.40
2023-05-20T07:41:28.986Z,59.90
2023-05-20T07:43:56.350Z,59.20
2023-05-20T07:46:23.440Z,58.40
2023-05-20T07:48:50.455Z,57.40
2023-05-20T07:51:18.925Z,56.40
2023-05-20T07:53:46.059Z,56.10
2023-05-20T07:56:13.062Z,56.50
2023-05-20T07:58:43.286Z,56.90
2023-05-20T08:01:11.763Z,57.20
2023-05-20T08:03:39.032Z,57.50
2023-05-20T08:06:10.918Z,57.80
2023-05-20T08:08:40.547Z,57.90
2023-05-20T08:11:13.551Z,57.90
2023-05-20T08:13:41.283Z,58.20
2023-05-20T08:16:08.516Z,58.80
2023-05-20T08:18:39.689Z,58.30
2023-05-20T08:21:10.090Z,58.20
2023-05-20T08:23:39.680Z,58.10
2023-05-20T08:26:07.790Z,58.00
2023-05-20T08:28:38.169Z,57.70
2023-05-20T08:31:05.744Z,57.60
2023-05-20T08:33:35.444Z,57.40
2023-05-20T08:36:02.682Z,57.30
2023-05-20T08:38:30.248Z,57.30
2023-05-20T08:40:58.030Z,57.10
2023-05-20T08:43:26.540Z,57.00
2023-05-20T08:45:53.766Z,56.60
2023-05-20T08:48:27.967Z,56.50
2023-05-20T08:50:57.718Z,56.40
2023-05-20T08:53:24.686Z,56.30
2023-05-20T08:56:01.480Z,56.30
2023-05-20T08:58:30.005Z,56.30
2023-05-20T09:00:59.014Z,56.10
2023-05-20T09:03:26.105Z,55.80
2023-05-20T09:05:54.155Z,55.70
2023-05-20T09:08:29.034Z,55.20
2023-05-20T09:10:56.130Z,55.00
2023-05-20T09:13:24.577Z,54.80
2023-05-20T09:15:51.695Z,54.60
2023-05-20T09:18:18.945Z,54.50
2023-05-20T09:20:48.106Z,54.00
2023-05-20T09:23:15.079Z,53.60
2023-05-20T09:25:42.160Z,53.20
2023-05-20T09:28:09.490Z,52.70
2023-05-20T09:30:36.731Z,52.20
2023-05-20T09:33:05.476Z,51.80
2023-05-20T09:35:37.541Z,51.70
2023-05-20T09:38:06.637Z,52.50
2023-05-20T09:40:33.809Z,52.00
2023-05-20T09:43:03.823Z,52.00
2023-05-20T09:45:31.280Z,51.80
2023-05-20T09:48:00.172Z,51.50
2023-05-20T09:50:28.860Z,51.00
2023-05-20T09:52:56.387Z,51.30
2023-05-20T09:55:27.828Z,51.60
2023-05-20T09:57:56.452Z,51.90
2023-05-20T10:00:23.566Z,51.90
2023-05-20T10:02:52.241Z,51.80
2023-05-20T10:05:24.499Z,50.90
2023-05-20T10:07:57.658Z,50.00
2023-05-20T10:10:46.143Z,48.50
2023-05-20T10:13:16.192Z,47.00
2023-05-20T10:15:43.160Z,46.00
2023-05-20T10:18:13.273Z,45.60
2023-05-20T10:20:50.971Z,45.10
2023-05-20T10:23:27.948Z,44.60
2023-05-20T10:25:56.493Z,44.10
2023-05-20T10:28:37.793Z,42.90
2023-05-20T10:31:17.300Z,41.90
2023-05-20T10:33:45.972Z,42.10
2023-05-20T10:36:31.873Z,42.30
2023-05-20T10:39:00.069Z,42.10
2023-05-20T10:41:29.410Z,42.20
2023-05-20T10:44:04.078Z,42.30
2023-05-20T10:46:53.794Z,41.70
2023-05-20T10:49:26.852Z,41.30
2023-05-20T10:51:54.815Z,41.60
2023-05-20T10:54:22.977Z,41.90
2023-05-20T10:56:54.198Z,41.90
2023-05-20T10:59:22.217Z,41.70
2023-05-20T11:01:49.575Z,41.40
2023-05-20T11:04:17.646Z,41.40
2023-05-20T11:06:55.355Z,41.20
2023-05-20T11:09:22.952Z,41.40
2023-05-20T11:11:51.407Z,42.00
2023-05-20T11:14:20.220Z,42.30
2023-05-20T11:16:51.084Z,42.60
2023-05-20T11:19:19.184Z,42.00
2023-05-20T11:21:47.355Z,40.80
2023-05-20T11:24:15.157Z,38.90
2023-05-20T11:26:42.197Z,36.90
2023-05-20T11:29:09.340Z,35.50
2023-05-20T11:31:39.120Z,35.60
2023-05-20T11:34:06.251Z,36.60
2023-05-20T11:36:33.484Z,37.10
2023-05-20T11:39:00.993Z,36.80
2023-05-20T11:41:28.887Z,36.80
2023-05-20T11:43:58.361Z,36.70
2023-05-20T11:46:25.913Z,36.80
2023-05-20T11:48:57.171Z,37.00
2023-05-20T11:51:28.820Z,36.30
2023-05-20T11:54:02.817Z,35.80
2023-05-20T11:56:31.222Z,34.60
2023-05-20T11:58:59.740Z,34.10
2023-05-20T12:01:28.632Z,33.60
2023-05-20T12:03:55.832Z,33.30
2023-05-20T12:06:22.931Z,33.00
2023-05-20T12:08:49.793Z,32.10
2023-05-20T12:11:17.043Z,30.70
2023-05-20T12:13:44.011Z,30.00
2023-05-20T12:16:11.110Z,30.20
2023-05-20T12:18:38.175Z,29.90
2023-05-20T12:21:05.294Z,29.40
2023-05-20T12:23:34.413Z,28.90
2023-05-20T12:26:01.592Z,28.70
2023-05-20T12:28:28.616Z,28.80
2023-05-20T12:30:55.694Z,29.10
2023-05-20T12:33:22.762Z,29.20
2023-05-20T12:35:49.832Z,29.20
2023-05-20T12:38:16.877Z,29.20
2023-05-20T12:40:44.155Z,28.80
2023-05-20T12:43:11.178Z,28.60
2023-05-20T12:45:38.120Z,28.50
2023-05-20T12:48:07.884Z,28.30
2023-05-20T12:50:35.376Z,28.60
2023-05-20T12:53:02.683Z,28.70
2023-05-20T12:55:29.636Z,28.40
2023-05-20T12:57:56.719Z,28.30
2023-05-20T13:00:23.769Z,28.30
2023-05-20T13:02:50.972Z,28.40
2023-05-20T13:05:18.251Z,28.40
2023-05-20T13:07:45.794Z,28.50
2023-05-20T13:10:12.796Z,28.40
2023-05-20T13:12:40.444Z,28.40
2023-05-20T13:15:08.144Z,28.80
2023-05-20T13:17:35.108Z,29.10
2023-05-20T13:20:02.192Z,29.30
2023-05-20T13:22:29.134Z,29.70
2023-05-20T13:24:56.083Z,30.10
2023-05-20T13:27:23.136Z,30.60
2023-05-20T13:29:50.182Z,31.10
2023-05-20T13:32:17.276Z,31.70
2023-05-20T13:34:44.340Z,32.00
2023-05-20T13:37:11.341Z,32.40
2023-05-20T13:39:38.390Z,32.60
2023-05-20T13:42:05.608Z,32.60
2023-05-20T13:44:32.931Z,32.30
2023-05-20T13:47:00.230Z,32.40
2023-05-20T13:49:27.671Z,32.40
2023-05-20T13:51:54.702Z,32.30
2023-05-20T13:54:21.951Z,32.50
2023-05-20T13:56:49.111Z,33.10
2023-05-20T13:59:16.205Z,33.30
2023-05-20T14:01:46.636Z,33.90
2023-05-20T14:04:13.649Z,34.40
2023-05-20T14:06:40.841Z,34.90
2023-05-20T14:09:11.204Z,35.40
2023-05-20T14:11:38.350Z,35.70
2023-05-20T14:14:05.351Z,35.80
2023-05-20T14:16:33.033Z,35.90
2023-05-20T14:19:00.134Z,36.20
2023-05-20T14:21:27.233Z,36.70
2023-05-20T14:23:54.232Z,36.80
2023-05-20T14:26:21.798Z,37.20
2023-05-20T14:28:49.106Z,37.50
2023-05-20T14:31:16.367Z,38.00
2023-05-20T14:33:43.550Z,38.10
2023-05-20T14:36:11.318Z,38.40
2023-05-20T14:38:38.534Z,38.40
2023-05-20T14:41:05.480Z,38.60
2023-05-20T14:43:32.562Z,38.70
2023-05-20T14:46:04.052Z,38.80
2023-05-20T14:48:31.135Z,39.10
2023-05-20T14:50:58.104Z,39.20
2023-05-20T14:53:25.114Z,39.50
2023-05-20T14:55:52.044Z,39.80
2023-05-20T14:58:18.992Z,40.10
2023-05-20T15:00:46.131Z,40.40
2023-05-20T15:03:13.353Z,40.50
2023-05-20T15:05:41.324Z,40.90
2023-05-20T15:08:08.393Z,41.30
2023-05-20T15:10:35.561Z,41.70
2023-05-20T15:13:02.612Z,42.00
2023-05-20T15:15:29.598Z,42.10
2023-05-20T15:17:56.812Z,42.00
2023-05-20T15:20:23.890Z,42.00
2023-05-20T15:22:50.852Z,42.10
2023-05-20T15:25:17.912Z,42.50
2023-05-20T15:27:44.872Z,42.80
2023-05-20T15:30:12.581Z,42.90
2023-05-20T15:32:40.088Z,43.00
2023-05-20T15:35:07.802Z,43.20
2023-05-20T15:37:34.900Z,43.40
2023-05-20T15:40:02.221Z,43.40
2023-05-20T15:42:29.356Z,43.60
2023-05-20T15:44:56.401Z,43.70
2023-05-20T15:47:23.507Z,43.80
2023-05-20T15:49:50.795Z,43.80
2023-05-20T15:52:17.822Z,43.80
2023-05-20T15:54:56.142Z,43.90
2023-05-20T15:57:26.193Z,44.10
2023-05-20T15:59:53.233Z,44.30
2023-05-20T16:02:20.298Z,44.50
2023-05-20T16:04:47.658Z,45.20
2023-05-20T16:07:14.971Z,44.70
2023-05-20T16:09:41.916Z,44.80
2023-05-20T16:12:08.883Z,44.90
2023-05-20T16:14:36.167Z,44.90
2023-05-20T16:17:03.208Z,44.90
2023-05-20T16:19:30.397Z,45.00
2023-05-20T16:21:57.474Z,45.10
2023-05-20T16:24:24.442Z,45.00
2023-05-20T16:26:51.708Z,45.10
2023-05-20T16:29:18.664Z,45.20
2023-05-20T16:31:47.133Z,45.20
2023-05-20T16:34:15.800Z,45.40
2023-05-20T16:36:42.736Z,45.50
2023-05-20T16:39:09.658Z,46.00
2023-05-20T16:41:36.798Z,46.30
2023-05-20T16:44:03.818Z,46.70
2023-05-20T16:46:30.750Z,47.20
2023-05-20T16:48:57.709Z,47.50
2023-05-20T16:51:24.957Z,47.70
2023-05-20T16:53:52.239Z,47.80
2023-05-20T16:56:20.154Z,48.10
2023-05-20T16:58:47.335Z,48.20
2023-05-20T17:01:14.402Z,48.30
2023-05-20T17:03:41.485Z,48.70
2023-05-20T17:06:09.439Z,48.90
2023-05-20T17:08:38.114Z,49.00
2023-05-20T17:11:05.371Z,49.20
2023-05-20T17:13:32.295Z,49.30
2023-05-20T17:15:59.704Z,49.40
2023-05-20T17:18:26.639Z,49.60
2023-05-20T17:20:53.698Z,50.00
2023-05-20T17:23:20.620Z,50.10
2023-05-20T17:25:47.575Z,50.40
2023-05-20T17:28:14.494Z,50.50
2023-05-20T17:30:41.390Z,50.70
2023-05-20T17:33:08.356Z,50.90
2023-05-20T17:35:36.176Z,51.10
2023-05-20T17:38:03.143Z,51.40
2023-05-20T17:40:30.640Z,51.60
2023-05-20T17:42:57.646Z,51.80
2023-05-20T17:45:24.807Z,52.00
2023-05-20T17:47:51.944Z,52.20
2023-05-20T17:50:18.953Z,52.50
2023-05-20T17:52:46.654Z,52.70
2023-05-20T17:55:14.563Z,52.90
2023-05-20T17:57:41.692Z,53.00
2023-05-20T18:00:09.386Z,53.30
2023-05-20T18:02:38.373Z,53.40
2023-05-20T18:05:06.528Z,53.50
2023-05-20T18:07:33.546Z,53.70
2023-05-20T18:10:00.484Z,53.90
2023-05-20T18:12:27.502Z,54.10
2023-05-20T18:14:54.501Z,54.40
2023-05-20T18:17:21.663Z,54.50
2023-05-20T18:19:48.776Z,54.70
2023-05-20T18:22:15.934Z,54.80
2023-05-20T18:24:43.062Z,55.00
2023-05-20T18:27:10.076Z,55.20
2023-05-20T18:29:37.088Z,55.40
2023-05-20T18:32:04.454Z,55.60
2023-05-20T18:34:33.216Z,55.60
2023-05-20T18:37:00.682Z,55.70
2023-05-20T18:39:27.679Z,55.90
2023-05-20T18:41:54.713Z,56.00
2023-05-20T18:44:21.707Z,56.20
2023-05-20T18:46:48.676Z,56.40
2023-05-20T18:49:15.979Z,56.60
2023-05-20T18:51:43.069Z,56.80
2023-05-20T18:54:10.075Z,56.90
2023-05-20T18:56:37.102Z,57.00
2023-05-20T18:59:04.065Z,57.10
2023-05-20T19:01:31.286Z,57.30
2023-05-20T19:03:58.315Z,57.40
2023-05-20T19:06:25.841Z,57.50
2023-05-20T19:08:53.058Z,57.70
2023-05-20T19:11:20.013Z,57.90
2023-05-20T19:13:46.927Z,58.00
2023-05-20T19:16:14.052Z,58.20
2023-05-20T19:18:41.103Z,58.30
2023-05-20T19:21:08.100Z,58.60
2023-05-20T19:23:35.043Z,58.60
2023-05-20T19:26:02.431Z,58.80
2023-05-20T19:28:29.529Z,58.90
2023-05-20T19:30:56.565Z,59.10
2023-05-20T19:33:23.599Z,59.30
2023-05-20T19:35:50.968Z,59.70
2023-05-20T19:38:17.938Z,59.80
2023-05-20T19:40:45.200Z,59.90
2023-05-20T19:43:12.191Z,60.00
2023-05-20T19:45:39.320Z,60.10
2023-05-20T19:48:06.953Z,60.10
2023-05-20T19:50:34.551Z,60.30
2023-05-20T19:53:06.180Z,60.60
2023-05-20T19:55:34.737Z,60.90
2023-05-20T19:58:02.030Z,61.10
2023-05-20T20:00:29.613Z,61.30
2023-05-20T20:02:57.798Z,61.30
2023-05-20T20:05:25.973Z,61.50
2023-05-20T20:07:53.211Z,61.90
2023-05-20T20:10:20.404Z,62.20
2023-05-20T20:12:47.520Z,62.60
2023-05-20T20:15:14.577Z,63.00
2023-05-20T20:17:45.567Z,63.20
2023-05-20T20:20:14.139Z,63.40
2023-05-20T20:22:42.140Z,63.70
2023-05-20T20:25:09.535Z,63.90
2023-05-20T20:27:36.578Z,64.10
2023-05-20T20:30:03.936Z,64.40
2023-05-20T20:32:30.895Z,64.50
2023-05-20T20:34:58.318Z,64.70
2023-05-20T20:37:26.860Z,65.00
2023-05-20T20:39:55.282Z,65.20
2023-05-20T20:42:25.060Z,65.40
2023-05-20T20:44:52.638Z,65.60
2023-05-20T20:47:19.631Z,65.90
2023-05-20T20:49:46.639Z,66.20
2023-05-20T20:52:13.609Z,66.40
2023-05-20T20:54:42.961Z,66.70
2023-05-20T20:57:11.507Z,66.80
2023-05-20T20:59:39.873Z,67.00
2023-05-20T21:02:07.042Z,67.10
2023-05-20T21:04:34.208Z,67.20
2023-05-20T21:07:02.167Z,67.40
2023-05-20T21:09:29.350Z,67.50
2023-05-20T21:11:57.298Z,67.70
2023-05-20T21:14:25.347Z,67.80
2023-05-20T21:16:52.736Z,67.90
2023-05-20T21:19:21.979Z,67.90
2023-05-20T21:21:49.081Z,68.00
2023-05-20T21:24:16.033Z,68.10
2023-05-20T21:26:43.008Z,68.10
2023-05-20T21:29:12.083Z,68.20
2023-05-20T21:31:39.225Z,68.20
2023-05-20T21:34:06.152Z,68.20
2023-05-20T21:36:33.142Z,68.30
2023-05-20T21:39:00.040Z,68.30
2023-05-20T21:41:27.302Z,68.30
2023-05-20T21:43:54.372Z,68.20
2023-05-20T21:46:21.489Z,68.30
2023-05-20T21:48:48.573Z,68.30
2023-05-20T21:51:15.748Z,68.30
2023-05-20T21:53:42.867Z,68.30
2023-05-20T21:56:09.872Z,68.40
2023-05-20T21:58:41.179Z,68.50
2023-05-20T22:01:09.974Z,68.50
2023-05-20T22:03:38.258Z,68.60
2023-05-20T22:06:06.382Z,68.60
2023-05-20T22:08:33.856Z,68.60
2023-05-20T22:11:05.589Z,68.70
2023-05-20T22:13:36.345Z,68.70
2023-05-20T22:16:04.895Z,68.80
2023-05-20T22:18:32.287Z,68.70
2023-05-20T22:20:59.452Z,68.70
2023-05-20T22:23:27.344Z,68.80
2023-05-20T22:25:55.145Z,68.80
2023-05-20T22:28:23.746Z,68.80
2023-05-20T22:30:51.554Z,68.90
2023-05-20T22:33:18.760Z,68.90
2023-05-20T22:35:45.839Z,69.00
2023-05-20T22:38:12.817Z,69.00
2023-05-20T22:40:39.790Z,69.00
2023-05-20T22:43:06.728Z,69.00
2023-05-20T22:45:33.793Z,69.10
2023-05-20T22:48:01.920Z,69.00
2023-05-20T22:50:29.059Z,69.00
2023-05-20T22:52:56.224Z,69.10
2023-05-20T22:55:24.031Z,69.20
2023-05-20T22:57:51.545Z,69.20
2023-05-20T23:00:18.978Z,69.20
2023-05-20T23:02:49.652Z,69.40
2023-05-20T23:05:17.382Z,69.60
2023-05-20T23:07:45.088Z,69.80
2023-05-20T23:10:12.327Z,69.90
2023-05-20T23:12:39.358Z,70.00
2023-05-20T23:15:06.938Z,70.00
2023-05-20T23:17:34.088Z,70.20
2023-05-20T23:20:01.229Z,70.30
2023-05-20T23:22:28.285Z,70.50
2023-05-20T23:24:55.189Z,70.50
2023-05-20T23:27:22.233Z,70.60
2023-05-20T23:29:49.172Z,71.00
2023-05-20T23:32:16.269Z,70.90
2023-05-20T23:34:43.555Z,71.00
2023-05-20T23:37:10.538Z,71.10
2023-05-20T23:39:37.552Z,71.20
2023-05-20T23:42:05.240Z,72.30
2023-05-20T23:44:32.161Z,71.50
2023-05-20T23:46:59.190Z,71.60
2023-05-20T23:49:27.233Z,71.70
2023-05-20T23:51:54.267Z,72.20
2023-05-20T23:54:22.830Z,72.50
2023-05-20T23:56:49.938Z,72.60
2023-05-20T23:59:17.059Z,72.70
